New Providence, NJ

12:07 PM EDT on Julie 30, 2015 (GMT -0400)
New Providence | | Change Station
CLOSE
Current Station
Personal Weather Stations
Location: New Providence, NJ
Elevation: 259 ft
Nearby Weather Stations

Elev 259 ft 40.69 °N, 74.42 °W | Updated 1 minute ago

Toe getrek
Toe getrek
84.6 °F
Feels Like 94 °F
N
0.0
Wind Veranderlik Wind from SO
Gusts 0.0 mph

Vandag
High -- | Low -- °F
--% Chance of Precip.
Yesterday
High -- | Low -- °F
Precip. -- in
5:52 AM 8:15 PM
Waxing Gibbous, 99% visible
Druk 29.89 in
Sigbaarheid 7.0 myle
Wolke Toe getrek 2000 ft
Hitte Indeks 94 °F
Dou-punt 77 °F
Humiditeit 77%
Rainfall 0.00 in
Snow Depth Not available.
UV 1.0 out of 12
Pollen 7.00 out of 12
Air Quality Not available.
Flu Activity Not available.
METAR KMMU 301545Z 25008G13KT 7SM HZ OVC020 29/24 A2989

More Conditions Fewer Conditions

Druk 29.89 in
Sigbaarheid 7.0 myle
Wolke Toe getrek 2000 ft
Hitte Indeks 94 °F
Dou-punt 77 °F
Humiditeit 77%
Rainfall 0.00 in
Snow Depth Not available.
UV 1.0 out of 12
Pollen 7.00 out of 12
Air Quality Not available.
Flu Activity Not available.
METAR KMMU 301545Z 25008G13KT 7SM HZ OVC020 29/24 A2989

More Conditions Fewer Conditions

10-Day Weather Forecast

×

Almanac

Astronomy

Jul. 30, 2015 Rise Set
Ware Tyd
Civil Twilight
Nautical Twilight
Astronomical Twilight
Maan
Length Of Visible Light
Length of Day
Tomorrow will be .
, % of the Moon is Illuminated

Today's Extremes

State Highs State Lows

Community

WunderPhotos

Upload Photos

1,842,412 photos uploaded!

WunderBlogs® & News

Nearby

Air Quality

  Air Quality AQ Index Pollutant
Not available.

Snow Depth

Station Depth Elevation

Earthquake Activity

Stad Distance Mag. Time & Date
Minimum magnitude displayed is 2.5.

Coastal Water Temperatures

Plek Temperatuur

Stations

Nearby Weather Stations

Station Location Temp Wind afkoel Dou-punt Humiditeit Wind Precip. Elev Opdateer Type